createdAt,value
2018-02-16T00:01:41.335Z,93.50
2018-02-16T00:04:10.767Z,93.40
2018-02-16T00:06:39.647Z,93.30
2018-02-16T00:09:07.789Z,93.30
2018-02-16T00:11:36.393Z,93.40
2018-02-16T00:14:04.536Z,93.30
2018-02-16T00:16:32.651Z,93.10
2018-02-16T00:19:01.277Z,93.00
2018-02-16T00:21:29.400Z,93.00
2018-02-16T00:23:57.557Z,92.70
2018-02-16T00:26:25.692Z,92.80
2018-02-16T00:28:53.840Z,93.40
2018-02-16T00:31:22.720Z,93.50
2018-02-16T00:33:53.012Z,93.50
2018-02-16T00:36:22.416Z,93.50
2018-02-16T00:38:51.017Z,93.20
2018-02-16T00:41:20.135Z,93.10
2018-02-16T00:43:50.364Z,93.00
2018-02-16T00:46:19.640Z,92.70
2018-02-16T00:48:48.228Z,92.70
2018-02-16T00:51:16.360Z,92.70
2018-02-16T00:53:44.500Z,92.90
2018-02-16T00:56:13.380Z,92.70
2018-02-16T00:58:44.142Z,92.70
2018-02-16T01:01:12.278Z,93.10
2018-02-16T01:03:40.893Z,93.40
2018-02-16T01:06:09.325Z,93.30
2018-02-16T01:08:37.461Z,93.30
2018-02-16T01:11:06.621Z,93.10
2018-02-16T01:13:35.532Z,92.90
2018-02-16T01:16:05.122Z,92.90
2018-02-16T01:18:34.025Z,92.80
2018-02-16T01:21:04.208Z,92.80
2018-02-16T01:23:33.690Z,93.50
2018-02-16T01:26:02.849Z,93.20
2018-02-16T01:28:33.510Z,93.20
2018-02-16T01:31:04.076Z,93.10
2018-02-16T01:33:33.313Z,92.80
2018-02-16T01:36:03.569Z,92.80
2018-02-16T01:38:33.254Z,92.90
2018-02-16T01:41:01.812Z,92.60
2018-02-16T01:43:32.160Z,92.60
2018-02-16T01:46:01.319Z,92.60
2018-02-16T01:48:29.485Z,92.90
2018-02-16T01:50:57.648Z,92.90
2018-02-16T01:53:25.786Z,92.60
2018-02-16T01:55:53.936Z,92.50
2018-02-16T01:58:22.856Z,92.50
2018-02-16T02:00:53.515Z,92.50
2018-02-16T02:03:22.064Z,92.80
2018-02-16T02:05:52.071Z,92.70
2018-02-16T02:08:22.427Z,92.90
2018-02-16T02:10:50.545Z,92.60
2018-02-16T02:13:18.691Z,92.70
2018-02-16T02:15:46.817Z,92.50
2018-02-16T02:18:14.952Z,92.50
2018-02-16T02:20:43.069Z,92.30
2018-02-16T02:23:11.615Z,92.80
2018-02-16T02:25:40.828Z,92.50
2018-02-16T02:28:10.982Z,92.50
2018-02-16T02:30:39.104Z,92.40
2018-02-16T02:33:08.296Z,92.30
2018-02-16T02:35:37.077Z,92.40
2018-02-16T02:38:05.291Z,92.30
2018-02-16T02:40:36.464Z,92.20
2018-02-16T02:43:04.612Z,92.20
2018-02-16T02:45:36.189Z,91.90
2018-02-16T02:48:06.857Z,92.00
2018-02-16T02:50:36.412Z,92.10
2018-02-16T02:53:05.674Z,92.50
2018-02-16T02:55:35.969Z,92.60
2018-02-16T02:58:06.236Z,92.80
2018-02-16T03:00:35.158Z,92.70
2018-02-16T03:03:03.735Z,92.60
2018-02-16T03:05:32.207Z,92.70
2018-02-16T03:08:01.898Z,91.80
2018-02-16T03:10:31.596Z,91.80
2018-02-16T03:13:01.597Z,92.10
2018-02-16T03:15:31.338Z,91.90
2018-02-16T03:18:00.248Z,92.10
2018-02-16T03:20:29.245Z,92.10
2018-02-16T03:22:57.855Z,92.30
2018-02-16T03:25:26.731Z,92.40
2018-02-16T03:27:55.816Z,92.40
2018-02-16T03:30:24.388Z,92.40
2018-02-16T03:32:54.349Z,92.40
2018-02-16T03:35:22.488Z,92.40
2018-02-16T03:37:50.593Z,92.00
2018-02-16T03:40:21.084Z,91.80
2018-02-16T03:42:50.367Z,91.70
2018-02-16T03:45:19.121Z,91.70
2018-02-16T03:47:49.069Z,91.90
2018-02-16T03:50:17.992Z,91.90
2018-02-16T03:52:47.424Z,91.90
2018-02-16T03:55:17.093Z,91.40
2018-02-16T03:57:45.628Z,91.70
2018-02-16T04:00:14.758Z,92.10
2018-02-16T04:02:43.750Z,92.70
2018-02-16T04:05:13.068Z,92.80
2018-02-16T04:07:41.184Z,92.80
2018-02-16T04:10:09.322Z,93.30
2018-02-16T04:12:38.390Z,93.10
2018-02-16T04:15:07.296Z,93.80
2018-02-16T04:17:37.374Z,93.80
2018-02-16T04:20:05.542Z,93.30
2018-02-16T04:22:33.660Z,93.40
2018-02-16T04:25:01.816Z,93.10
2018-02-16T04:27:30.735Z,93.60
2018-02-16T04:29:58.883Z,93.60
2018-02-16T04:32:27.769Z,93.80
2018-02-16T04:34:55.909Z,93.80
2018-02-16T04:37:24.817Z,93.60
2018-02-16T04:39:52.965Z,93.60
2018-02-16T04:42:22.371Z,93.30
2018-02-16T04:44:51.224Z,93.50
2018-02-16T04:47:20.139Z,93.80
2018-02-16T04:49:48.276Z,93.90
2018-02-16T04:52:17.297Z,94.00
2018-02-16T04:54:45.442Z,93.70
2018-02-16T04:57:14.326Z,93.70
2018-02-16T04:59:43.364Z,93.70
2018-02-16T05:02:11.470Z,93.60
2018-02-16T05:04:39.617Z,93.70
2018-02-16T05:07:07.726Z,93.90
2018-02-16T05:09:35.880Z,94.40
2018-02-16T05:12:04.453Z,94.20
2018-02-16T05:14:32.591Z,94.10
2018-02-16T05:17:01.118Z,94.30
2018-02-16T05:19:30.921Z,94.00
2018-02-16T05:22:00.981Z,93.90
2018-02-16T05:24:29.891Z,94.00
2018-02-16T05:26:58.013Z,94.00
2018-02-16T05:29:26.209Z,93.90
2018-02-16T05:31:55.651Z,94.00
2018-02-16T05:34:24.176Z,93.60
2018-02-16T05:36:53.236Z,93.20
2018-02-16T05:39:23.530Z,93.50
2018-02-16T05:41:52.420Z,93.10
2018-02-16T05:44:21.336Z,93.10
2018-02-16T05:46:49.447Z,93.10
2018-02-16T05:49:17.616Z,93.10
2018-02-16T05:51:46.155Z,93.20
2018-02-16T05:54:14.796Z,93.10
2018-02-16T05:56:43.806Z,93.00
2018-02-16T05:59:11.958Z,93.40
2018-02-16T06:01:41.975Z,93.40
2018-02-16T06:04:12.016Z,93.20
2018-02-16T06:06:40.589Z,93.20
2018-02-16T06:09:09.979Z,92.70
2018-02-16T06:11:38.117Z,92.30
2018-02-16T06:14:06.250Z,91.60
2018-02-16T06:16:34.371Z,92.50
2018-02-16T06:19:02.601Z,93.50
2018-02-16T06:21:31.151Z,93.10
2018-02-16T06:23:59.293Z,92.90
2018-02-16T06:26:27.483Z,92.90
2018-02-16T06:28:57.200Z,92.70
2018-02-16T06:31:26.780Z,93.30
2018-02-16T06:33:54.907Z,93.30
2018-02-16T06:36:25.769Z,93.30
2018-02-16T06:38:54.663Z,93.00
2018-02-16T06:41:24.587Z,93.30
2018-02-16T06:43:52.704Z,93.30
2018-02-16T06:46:24.527Z,93.30
2018-02-16T06:48:57.328Z,93.30
2018-02-16T06:51:25.915Z,93.20
2018-02-16T06:53:56.223Z,93.30
2018-02-16T06:56:25.689Z,93.40
2018-02-16T06:58:53.813Z,93.20
2018-02-16T07:01:21.963Z,93.10
2018-02-16T07:03:52.197Z,92.10
2018-02-16T07:06:20.800Z,92.10
2018-02-16T07:08:49.357Z,91.90
2018-02-16T07:11:17.516Z,91.70
2018-02-16T07:13:47.223Z,91.80
2018-02-16T07:16:16.576Z,91.50
2018-02-16T07:18:44.689Z,91.50
2018-02-16T07:21:13.859Z,91.20
2018-02-16T07:23:42.779Z,90.80
2018-02-16T07:26:12.075Z,91.30
2018-02-16T07:28:40.184Z,91.40
2018-02-16T07:31:08.720Z,91.20
2018-02-16T07:33:38.152Z,90.80
2018-02-16T07:36:08.269Z,90.40
2018-02-16T07:38:37.638Z,87.20
2018-02-16T07:41:07.284Z,87.10
2018-02-16T07:43:36.167Z,80.70
2018-02-16T07:46:06.352Z,76.20
2018-02-16T07:48:34.472Z,70.50
2018-02-16T07:51:03.417Z,69.40
2018-02-16T07:53:33.070Z,69.40
2018-02-16T07:56:02.249Z,68.70
2018-02-16T07:58:31.665Z,68.70
2018-02-16T08:01:00.598Z,72.10
2018-02-16T08:03:31.040Z,72.00
2018-02-16T08:06:00.694Z,74.00
2018-02-16T08:08:29.587Z,76.90
2018-02-16T08:10:57.773Z,76.80
2018-02-16T08:13:26.653Z,80.40
2018-02-16T08:15:55.569Z,81.10
2018-02-16T08:18:23.687Z,81.10
2018-02-16T08:20:53.120Z,81.90
2018-02-16T08:23:22.007Z,82.10
2018-02-16T08:25:50.913Z,82.00
2018-02-16T08:28:19.817Z,83.10
2018-02-16T08:30:56.381Z,83.10
2018-02-16T08:33:24.500Z,78.00
2018-02-16T08:35:54.985Z,71.90
2018-02-16T08:38:23.111Z,71.90
2018-02-16T08:40:51.704Z,68.60
2018-02-16T08:43:20.801Z,64.80
2018-02-16T08:45:50.301Z,60.00
2018-02-16T08:48:18.453Z,58.60
2018-02-16T08:50:47.370Z,57.20
2018-02-16T08:53:19.747Z,58.80
2018-02-16T08:55:50.784Z,60.50
2018-02-16T08:58:18.932Z,63.40
2018-02-16T09:00:47.088Z,65.60
2018-02-16T09:03:15.219Z,66.60
2018-02-16T09:05:43.368Z,62.50
2018-02-16T09:08:11.484Z,57.80
2018-02-16T09:13:09.087Z,54.20
2018-02-16T09:15:37.233Z,54.70
2018-02-16T09:18:06.124Z,58.20
2018-02-16T09:20:35.032Z,57.80
2018-02-16T09:23:03.147Z,57.70
2018-02-16T09:25:31.762Z,59.50
2018-02-16T09:28:00.668Z,61.30
2018-02-16T09:30:30.671Z,60.00
2018-02-16T09:32:59.559Z,61.80
2018-02-16T09:35:27.730Z,62.50
2018-02-16T09:37:55.856Z,63.80
2018-02-16T09:40:23.991Z,67.00
2018-02-16T09:42:53.360Z,67.10
2018-02-16T09:45:21.505Z,67.10
2018-02-16T09:47:49.637Z,67.30
2018-02-16T09:50:19.863Z,67.60
2018-02-16T09:52:48.741Z,67.30
2018-02-16T09:55:16.889Z,67.30
2018-02-16T09:57:46.528Z,63.20
2018-02-16T10:00:15.429Z,64.90
2018-02-16T10:02:44.311Z,65.20
2018-02-16T10:05:13.272Z,67.10
2018-02-16T10:07:41.402Z,67.10
2018-02-16T10:10:09.547Z,66.10
2018-02-16T10:12:38.438Z,68.10
2018-02-16T10:15:07.337Z,67.90
2018-02-16T10:17:36.302Z,68.30
2018-02-16T10:20:04.424Z,68.30
2018-02-16T10:22:32.556Z,69.50
2018-02-16T10:25:00.743Z,67.50
2018-02-16T10:27:29.653Z,67.90
2018-02-16T10:29:57.772Z,67.90
2018-02-16T10:32:25.913Z,69.20
2018-02-16T10:34:54.025Z,69.20
2018-02-16T10:37:23.058Z,68.40
2018-02-16T10:39:52.772Z,69.80
2018-02-16T10:42:20.914Z,69.70
2018-02-16T10:44:49.996Z,69.30
2018-02-16T10:47:18.141Z,70.30
2018-02-16T10:49:46.255Z,70.40
2018-02-16T10:52:14.392Z,69.50
2018-02-16T10:54:42.513Z,69.80
2018-02-16T10:57:10.658Z,70.00
2018-02-16T10:59:39.224Z,69.50
2018-02-16T11:02:12.938Z,69.50
2018-02-16T11:04:46.685Z,70.60
2018-02-16T11:07:21.043Z,71.10
2018-02-16T11:09:49.151Z,70.70
2018-02-16T11:12:17.292Z,71.30
2018-02-16T11:14:46.056Z,71.20
2018-02-16T11:17:14.204Z,71.90
2018-02-16T11:19:42.320Z,70.70
2018-02-16T11:22:10.454Z,71.50
2018-02-16T11:24:38.576Z,71.10
2018-02-16T11:27:06.721Z,71.20
2018-02-16T11:29:35.683Z,71.20
2018-02-16T11:32:03.826Z,71.30
2018-02-16T11:34:31.944Z,72.00
2018-02-16T11:37:00.856Z,71.50
2018-02-16T11:39:29.010Z,71.50
2018-02-16T11:41:57.144Z,70.50
2018-02-16T11:44:25.252Z,70.20
2018-02-16T11:46:54.164Z,70.40
2018-02-16T11:49:23.432Z,69.70
2018-02-16T11:51:51.568Z,69.90
2018-02-16T11:54:19.683Z,67.30
2018-02-16T11:56:47.830Z,67.60
2018-02-16T11:59:15.959Z,67.30
2018-02-16T12:01:44.100Z,67.20
2018-02-16T12:04:12.754Z,68.00
2018-02-16T12:06:40.924Z,68.30
2018-02-16T12:09:09.046Z,67.40
2018-02-16T12:11:37.958Z,66.70
2018-02-16T12:14:06.076Z,66.70
2018-02-16T12:16:34.668Z,65.50
2018-02-16T12:19:02.797Z,64.80
2018-02-16T12:21:30.934Z,60.00
2018-02-16T12:23:59.056Z,60.90
2018-02-16T12:26:27.206Z,61.10
2018-02-16T12:28:55.316Z,62.60
2018-02-16T12:31:23.494Z,61.50
2018-02-16T12:33:51.621Z,62.90
2018-02-16T12:36:20.525Z,64.90
2018-02-16T12:38:48.655Z,64.90
2018-02-16T12:41:16.805Z,65.80
2018-02-16T12:43:44.927Z,65.90
2018-02-16T12:46:16.970Z,66.10
2018-02-16T12:48:45.845Z,66.10
2018-02-16T12:51:13.988Z,66.70
2018-02-16T12:53:42.653Z,65.80
2018-02-16T12:56:10.784Z,67.10
2018-02-16T12:58:40.407Z,67.60
2018-02-16T13:01:08.563Z,67.50
2018-02-16T13:03:37.192Z,66.20
2018-02-16T13:06:05.308Z,65.40
2018-02-16T13:08:33.444Z,66.30
2018-02-16T13:11:03.633Z,65.00
2018-02-16T13:13:32.555Z,65.40
2018-02-16T13:16:01.509Z,65.30
2018-02-16T13:18:30.745Z,65.80
2018-02-16T13:20:58.871Z,66.10
2018-02-16T13:23:27.021Z,65.40
2018-02-16T13:25:55.191Z,64.60
2018-02-16T13:28:23.315Z,64.20
2018-02-16T13:30:52.061Z,65.00
2018-02-16T13:33:20.293Z,63.80
2018-02-16T13:35:49.651Z,64.40
2018-02-16T13:38:17.817Z,64.40
2018-02-16T13:40:48.604Z,64.40
2018-02-16T13:43:19.027Z,63.30
2018-02-16T13:45:54.557Z,62.50
2018-02-16T13:48:24.293Z,62.40
2018-02-16T13:50:53.188Z,62.50
2018-02-16T13:53:21.599Z,62.50
2018-02-16T13:55:52.299Z,63.80
2018-02-16T13:58:22.067Z,63.60
2018-02-16T14:00:50.192Z,63.40
2018-02-16T14:03:18.548Z,64.40
2018-02-16T14:05:47.103Z,63.90
2018-02-16T14:08:16.712Z,63.70
2018-02-16T14:10:44.870Z,64.00
2018-02-16T14:13:13.089Z,63.50
2018-02-16T14:15:41.203Z,63.00
2018-02-16T14:18:09.358Z,64.30
2018-02-16T14:20:39.356Z,65.10
2018-02-16T14:23:08.285Z,64.30
2018-02-16T14:25:36.391Z,64.30
2018-02-16T14:28:04.537Z,64.50
2018-02-16T14:30:32.656Z,64.40
2018-02-16T14:33:00.805Z,65.30
2018-02-16T14:35:28.936Z,64.20
2018-02-16T14:37:57.071Z,64.80
2018-02-16T14:40:25.185Z,65.20
2018-02-16T14:42:53.323Z,65.70
2018-02-16T14:45:21.442Z,65.70
2018-02-16T14:47:50.661Z,66.10
2018-02-16T14:50:18.780Z,65.60
2018-02-16T14:52:47.716Z,66.20
2018-02-16T14:55:15.823Z,66.20
2018-02-16T14:57:44.631Z,65.80
2018-02-16T15:00:14.883Z,65.00
2018-02-16T15:02:43.014Z,65.10
2018-02-16T15:05:11.273Z,64.80
2018-02-16T15:07:39.484Z,65.90
2018-02-16T15:10:07.636Z,66.40
2018-02-16T15:12:35.782Z,66.50
2018-02-16T15:15:12.157Z,67.40
2018-02-16T15:17:42.666Z,66.60
2018-02-16T15:20:14.805Z,66.00
2018-02-16T15:22:44.952Z,65.90
2018-02-16T15:25:17.562Z,66.80
2018-02-16T15:27:45.708Z,67.00
2018-02-16T15:30:13.831Z,66.40
2018-02-16T15:32:42.441Z,67.20
2018-02-16T15:35:11.327Z,65.70
2018-02-16T15:37:41.702Z,65.60
2018-02-16T15:40:11.240Z,65.50
2018-02-16T15:42:42.726Z,65.80
2018-02-16T15:45:10.860Z,66.40
2018-02-16T15:47:40.513Z,66.50
2018-02-16T15:50:08.661Z,66.40
2018-02-16T15:52:37.571Z,67.90
2018-02-16T15:55:05.816Z,67.90
2018-02-16T15:57:34.796Z,68.90
2018-02-16T16:00:02.922Z,68.60
2018-02-16T16:02:36.029Z,68.50
2018-02-16T16:05:04.168Z,69.10
2018-02-16T16:07:32.317Z,69.20
2018-02-16T16:10:00.898Z,68.70
2018-02-16T16:12:29.031Z,68.80
2018-02-16T16:14:57.137Z,69.60
2018-02-16T16:17:25.292Z,70.20
2018-02-16T16:19:53.700Z,70.20
2018-02-16T16:22:22.013Z,70.70
2018-02-16T16:24:50.120Z,71.70
2018-02-16T16:27:18.320Z,71.70
2018-02-16T16:29:46.391Z,71.70
2018-02-16T16:32:14.574Z,71.10
2018-02-16T16:34:43.192Z,71.40
2018-02-16T16:37:12.085Z,72.50
2018-02-16T16:39:40.990Z,73.20
2018-02-16T16:42:09.101Z,73.20
2018-02-16T16:44:37.242Z,73.30
2018-02-16T16:47:05.910Z,73.10
2018-02-16T16:49:34.829Z,74.40
2018-02-16T16:52:02.940Z,74.30
2018-02-16T16:54:31.149Z,74.00
2018-02-16T16:57:00.030Z,72.80
2018-02-16T16:59:28.931Z,72.30
2018-02-16T17:01:57.803Z,73.00
2018-02-16T17:04:25.948Z,72.90
2018-02-16T17:06:54.102Z,72.50
2018-02-16T17:09:22.254Z,72.60
2018-02-16T17:11:50.371Z,72.50
2018-02-16T17:14:18.512Z,72.60
2018-02-16T17:16:46.667Z,73.00
2018-02-16T17:19:15.578Z,72.50
2018-02-16T17:21:43.692Z,72.40
2018-02-16T17:24:11.837Z,71.90
2018-02-16T17:26:39.961Z,72.00
2018-02-16T17:29:08.139Z,70.80
2018-02-16T17:31:36.246Z,70.90
2018-02-16T17:34:04.376Z,72.20
2018-02-16T17:36:32.484Z,71.70
2018-02-16T17:39:00.631Z,71.10
2018-02-16T17:41:28.744Z,70.30
2018-02-16T17:43:56.881Z,70.30
2018-02-16T17:46:25.809Z,70.60
2018-02-16T17:48:54.680Z,71.20
2018-02-16T17:51:22.797Z,71.10
2018-02-16T17:53:50.941Z,72.20
2018-02-16T17:56:19.066Z,72.50
2018-02-16T17:58:47.192Z,72.80
2018-02-16T18:01:15.304Z,72.20
2018-02-16T18:03:43.441Z,72.00
2018-02-16T18:06:12.006Z,71.90
2018-02-16T18:08:40.568Z,71.40
2018-02-16T18:11:08.682Z,70.80
2018-02-16T18:13:37.688Z,71.30
2018-02-16T18:16:05.806Z,72.00
2018-02-16T18:18:33.944Z,71.60
2018-02-16T18:21:02.062Z,72.10
2018-02-16T18:23:30.953Z,73.10
2018-02-16T18:25:59.832Z,73.10
2018-02-16T18:28:27.988Z,73.10
2018-02-16T18:30:56.092Z,73.00
2018-02-16T18:33:24.992Z,73.50
2018-02-16T18:35:53.104Z,73.50
2018-02-16T18:38:21.266Z,73.80
2018-02-16T18:40:49.381Z,73.40
2018-02-16T18:43:17.527Z,72.80
2018-02-16T18:45:45.638Z,72.00
2018-02-16T18:48:13.780Z,72.20
2018-02-16T18:50:41.900Z,72.20
2018-02-16T18:53:10.804Z,71.70
2018-02-16T18:55:38.945Z,71.70
2018-02-16T18:58:07.080Z,71.50
2018-02-16T19:00:35.196Z,71.70
2018-02-16T19:03:04.097Z,71.90
2018-02-16T19:05:32.974Z,72.00
2018-02-16T19:08:01.878Z,71.40
2018-02-16T19:10:30.014Z,72.10
2018-02-16T19:12:58.129Z,72.30
2018-02-16T19:15:27.039Z,72.40
2018-02-16T19:17:55.166Z,72.40
2018-02-16T19:20:23.489Z,72.60
2018-02-16T19:22:51.637Z,72.50
2018-02-16T19:25:20.544Z,74.00
2018-02-16T19:27:48.663Z,74.00
2018-02-16T19:30:16.804Z,74.10
2018-02-16T19:32:44.930Z,74.30
2018-02-16T19:35:13.626Z,73.90
2018-02-16T19:37:41.731Z,75.20
2018-02-16T19:40:09.869Z,75.10
2018-02-16T19:42:38.765Z,73.90
2018-02-16T19:45:07.668Z,74.60
2018-02-16T19:47:36.114Z,74.50
2018-02-16T19:50:04.258Z,75.00
2018-02-16T19:52:32.377Z,74.60
2018-02-16T19:55:01.280Z,75.60
2018-02-16T19:57:30.165Z,74.80
2018-02-16T19:59:59.076Z,75.50
2018-02-16T20:02:27.197Z,75.50
2018-02-16T20:04:56.752Z,76.00
2018-02-16T20:07:24.907Z,76.60
2018-02-16T20:09:54.034Z,77.00
2018-02-16T20:12:22.187Z,77.00
2018-02-16T20:14:51.563Z,77.30
2018-02-16T20:17:20.180Z,77.20
2018-02-16T20:19:49.430Z,77.40
2018-02-16T20:22:18.363Z,77.60
2018-02-16T20:24:47.268Z,77.70
2018-02-16T20:27:15.714Z,77.70
2018-02-16T20:29:43.915Z,78.00
2018-02-16T20:32:12.793Z,77.40
2018-02-16T20:34:41.701Z,77.60
2018-02-16T20:37:10.588Z,77.30
2018-02-16T20:39:39.146Z,77.30
2018-02-16T20:42:07.336Z,78.40
2018-02-16T20:44:36.306Z,79.50
2018-02-16T20:47:04.420Z,80.20
2018-02-16T20:49:32.567Z,79.50
2018-02-16T20:52:00.729Z,79.10
2018-02-16T20:54:28.842Z,80.00
2018-02-16T20:56:56.960Z,80.00
2018-02-16T20:59:25.096Z,80.30
2018-02-16T21:01:53.216Z,80.70
2018-02-16T21:04:21.363Z,81.00
2018-02-16T21:06:49.483Z,81.60
2018-02-16T21:09:18.405Z,81.40
2018-02-16T21:11:46.543Z,81.40
2018-02-16T21:14:14.680Z,81.20
2018-02-16T21:16:42.809Z,81.30
2018-02-16T21:19:11.019Z,81.20
2018-02-16T21:21:39.120Z,80.60
2018-02-16T21:24:07.244Z,80.50
2018-02-16T21:26:35.363Z,80.50
2018-02-16T21:29:03.495Z,80.90
2018-02-16T21:31:31.606Z,80.70
2018-02-16T21:33:59.749Z,80.50
2018-02-16T21:36:27.885Z,81.30
2018-02-16T21:38:56.792Z,82.00
2018-02-16T21:41:24.916Z,82.00
2018-02-16T21:43:53.045Z,82.20
2018-02-16T21:46:21.200Z,83.50
2018-02-16T21:48:50.081Z,83.70
2018-02-16T21:51:18.980Z,82.80
2018-02-16T21:53:47.857Z,82.50
2018-02-16T21:56:16.010Z,82.40
2018-02-16T21:58:44.131Z,82.40
2018-02-16T22:01:12.302Z,82.60
2018-02-16T22:03:40.420Z,82.40
2018-02-16T22:06:09.321Z,82.30
2018-02-16T22:08:37.444Z,82.20
2018-02-16T22:11:05.593Z,82.30
2018-02-16T22:13:34.499Z,82.50
2018-02-16T22:16:02.821Z,81.80
2018-02-16T22:18:30.944Z,80.70
2018-02-16T22:20:59.872Z,81.70
2018-02-16T22:23:27.982Z,81.60
2018-02-16T22:25:56.130Z,82.60
2018-02-16T22:28:25.016Z,83.10
2018-02-16T22:30:53.175Z,83.00
2018-02-16T22:33:21.310Z,83.40
2018-02-16T22:35:50.218Z,85.00
2018-02-16T22:38:18.357Z,84.60
2018-02-16T22:40:46.518Z,84.00
2018-02-16T22:43:14.660Z,83.90
2018-02-16T22:45:42.808Z,84.80
2018-02-16T22:48:12.165Z,85.20
2018-02-16T22:50:40.329Z,84.40
2018-02-16T22:53:09.476Z,84.10
2018-02-16T22:55:39.851Z,83.80
2018-02-16T22:58:07.993Z,83.80
2018-02-16T23:00:36.126Z,83.40
2018-02-16T23:03:04.235Z,83.10
2018-02-16T23:05:32.377Z,83.10
2018-02-16T23:08:00.491Z,82.60
2018-02-16T23:10:28.634Z,83.00
2018-02-16T23:12:57.516Z,84.70
2018-02-16T23:15:27.730Z,84.60
2018-02-16T23:17:55.866Z,84.30
2018-02-16T23:20:23.996Z,84.20
2018-02-16T23:22:52.876Z,84.60
2018-02-16T23:25:21.020Z,84.60
2018-02-16T23:27:49.129Z,84.40
2018-02-16T23:30:17.265Z,84.10
2018-02-16T23:32:46.164Z,83.90
2018-02-16T23:35:15.061Z,84.70
2018-02-16T23:37:43.183Z,84.60
2018-02-16T23:40:11.334Z,84.20
2018-02-16T23:42:39.404Z,85.20
2018-02-16T23:45:07.560Z,85.50
2018-02-16T23:47:35.792Z,85.10
2018-02-16T23:50:04.732Z,86.40
2018-02-16T23:52:32.853Z,87.10
2018-02-16T23:55:01.001Z,85.40
2018-02-16T23:57:29.126Z,85.10
2018-02-16T23:59:58.041Z,85.90
